Time;durP1;ratioP1;P1;durP2;ratioP2;P2;SDS_P1;SDS_P2;PMS_P1;PMS_P2;Temp;Humidity;BMP_temperature;BMP_pressure;BME280_temperature;BME280_humidity;BME280_pressure;Samples;Min_cycle;Max_cycle;Signal;HPM_P1;HPM_P2
2023/03/13 00:01:36;;;;;;;;;2.00;2.00;;;;;11.35;53.54;101097.72;146611;577;45016;-72
2023/03/13 00:04:42;;;;;;;;;1.50;1.50;;;;;9.20;53.33;100728.16;146610;612;45021;-70
2023/03/13 00:07:39;;;;;;;;;6.00;4.75;;;;;11.37;54.84;101111.69;146608;572;45016;-70
2023/03/13 00:11:03;;;;;;;;;5.00;5.00;;;;;11.38;54.39;101105.69;146609;571;45021;-68
2023/03/13 00:14:21;;;;;;;;;2.25;2.25;;;;;9.11;54.17;100703.47;146609;571;45018;-69
2023/03/13 00:17:41;;;;;;;;;4.25;4.00;;;;;11.32;55.22;101089.78;146613;617;45020;-70
2023/03/13 00:20:38;;;;;;;;;7.50;5.00;;;;;11.29;53.70;101098.28;146608;569;45914;-71
2023/03/13 00:23:40;;;;;;;;;2.00;1.00;;;;;11.28;52.66;101101.69;146612;573;45020;-72
2023/03/13 00:26:51;;;;;;;;;1.50;1.00;;;;;11.35;52.91;101097.72;146611;606;45017;-70
2023/03/13 00:29:49;;;;;;;;;0.00;0.00;;;;;11.44;52.35;101084.34;146612;572;45020;-70
2023/03/13 00:32:53;;;;;;;;;1.50;0.75;;;;;11.55;51.77;101083.19;146609;591;45914;-71
2023/03/13 00:35:57;;;;;;;;;0.50;0.50;;;;;11.62;51.93;101087.00;146612;571;45020;-71
2023/03/13 00:38:56;;;;;;;;;4.00;2.00;;;;;11.59;53.58;101095.56;146610;602;45016;-71
2023/03/13 00:41:55;;;;;;;;;3.50;3.50;;;;;11.52;53.84;101103.81;146611;607;45021;-72
2023/03/13 00:45:02;;;;;;;;;5.25;5.00;;;;;11.47;54.02;101100.09;146610;712;45016;-72
2023/03/13 00:48:37;;;;;;;;;3.75;2.25;;;;;9.51;52.82;100766.13;146611;625;45021;-74
2023/03/13 00:51:51;;;;;;;;;6.75;5.25;;;;;9.31;53.31;100722.69;146608;681;45018;-72
2023/03/13 00:54:56;;;;;;;;;9.50;8.00;;;;;11.53;54.46;101108.22;146612;593;45022;-72
2023/03/13 00:57:57;;;;;;;;;8.75;6.75;;;;;11.54;54.51;101108.28;146609;616;45916;-71
2023/03/13 01:01:23;;;;;;;;;7.00;6.00;;;;;9.48;53.29;100751.31;146611;635;45020;-72
2023/03/13 01:04:22;;;;;;;;;3.75;2.50;;;;;11.55;54.43;101106.56;146609;720;45019;-70
2023/03/13 01:07:25;;;;;;;;;3.75;3.25;;;;;11.54;54.20;101123.88;146612;588;45020;-71
2023/03/13 01:10:22;;;;;;;;;2.00;1.75;;;;;11.54;54.80;101129.06;146608;613;45017;-69
2023/03/13 01:13:34;;;;;;;;;1.00;1.00;;;;;11.59;53.67;101129.31;146611;611;45049;-71
2023/03/13 01:16:35;;;;;;;;;3.00;3.00;;;;;11.61;54.10;101132.88;146610;630;45016;-70
2023/03/13 01:19:46;;;;;;;;;1.00;1.00;;;;;11.64;53.86;101132.16;146611;579;45020;-74
2023/03/13 01:22:53;;;;;;;;;1.75;1.75;;;;;11.64;54.47;101152.94;146610;660;45910;-76
2023/03/13 01:26:08;;;;;;;;;1.00;1.00;;;;;10.57;53.31;100971.53;146611;588;45021;-76
2023/03/13 01:29:22;;;;;;;;;9.00;7.75;;;;;11.69;54.08;101167.06;146609;563;45910;-76
2023/03/13 01:32:17;;;;;;;;;2.75;2.00;;;;;11.70;54.43;101166.25;146611;599;45021;-75
2023/03/13 01:35:11;;;;;;;;;3.00;3.00;;;;;11.71;54.59;101165.41;146608;572;45911;-75
2023/03/13 01:38:13;;;;;;;;;6.75;5.00;;;;;11.70;54.54;101169.72;146611;573;45020;-75
2023/03/13 01:41:39;;;;;;;;;4.25;4.00;;;;;11.73;54.69;101172.50;146608;606;46012;-74
2023/03/13 01:44:34;;;;;;;;;3.00;2.00;;;;;11.73;54.72;101175.09;146612;577;45020;-75
2023/03/13 01:47:32;;;;;;;;;0.00;0.00;;;;;11.72;53.38;101175.03;146610;646;45017;-75
2023/03/13 01:50:30;;;;;;;;;1.00;0.75;;;;;11.73;53.71;101163.81;146612;627;45020;-75
2023/03/13 01:53:43;;;;;;;;;;;;;;;;;;;;;
2023/03/13 01:57:16;;;;;;;;;1.00;1.00;;;;;11.80;53.65;101169.41;146613;577;45021;-70
2023/03/13 02:00:26;;;;;;;;;2.00;2.00;;;;;11.82;53.74;101166.91;146611;564;45016;-70
2023/03/13 02:03:28;;;;;;;;;0.00;0.00;;;;;11.77;55.18;101174.47;146612;651;45021;-69
2023/03/13 02:06:59;;;;;;;;;1.00;1.00;;;;;11.64;54.14;101179.78;146610;577;45016;-71
2023/03/13 02:10:13;;;;;;;;;0.50;0.25;;;;;9.53;54.79;100821.44;146613;565;45025;-69
2023/03/13 02:13:18;;;;;;;;;1.25;1.25;;;;;11.55;55.20;101177.56;146608;641;45016;-70
2023/03/13 02:16:20;;;;;;;;;0.50;0.50;;;;;11.55;54.63;101174.09;146607;575;47020;-69
2023/03/13 02:19:35;;;;;;;;;1.50;1.50;;;;;11.56;53.56;101181.09;146609;619;45016;-69
2023/03/13 02:23:00;;;;;;;;;1.00;1.00;;;;;11.52;54.07;101174.81;146611;569;45020;-69
2023/03/13 02:26:04;;;;;;;;;1.00;0.00;;;;;11.51;54.30;101166.97;146612;610;45022;-69
2023/03/13 02:29:17;;;;;;;;;3.00;1.75;;;;;11.51;53.71;101173.03;146610;651;45020;-68
2023/03/13 02:32:27;;;;;;;;;0.75;0.50;;;;;11.48;54.82;101177.19;146610;666;45916;-68
2023/03/13 02:35:25;;;;;;;;;2.00;0.75;;;;;11.47;54.22;101191.88;146611;612;45020;-67
2023/03/13 02:38:40;;;;;;;;;3.25;2.00;;;;;11.47;54.05;101193.56;146610;572;45017;-67
2023/03/13 02:41:34;;;;;;;;;3.50;1.00;;;;;11.50;53.90;101206.72;146612;569;45020;-66
2023/03/13 02:44:28;;;;;;;;;2.25;2.00;;;;;11.53;54.03;101212.97;146609;576;45016;-66
2023/03/13 02:47:27;;;;;;;;;1.25;1.25;;;;;11.47;54.69;101211.75;146610;574;45021;-66
2023/03/13 02:50:19;;;;;;;;;8.50;7.75;;;;;11.53;54.82;101223.37;146609;600;45912;-68
2023/03/13 02:53:14;;;;;;;;;6.50;5.75;;;;;11.54;54.38;101235.53;146612;711;45021;-71
2023/03/13 02:56:09;;;;;;;;;2.25;1.00;;;;;11.52;54.63;101236.25;146610;621;46017;-71
2023/03/13 02:59:05;;;;;;;;;3.25;2.25;;;;;11.52;54.89;101247.53;146612;691;45028;-71
2023/03/13 03:02:18;;;;;;;;;2.50;2.50;;;;;11.49;54.82;101242.16;146607;673;46010;-69
2023/03/13 03:05:15;;;;;;;;;4.00;3.50;;;;;11.50;54.92;101250.87;146608;571;46020;-68
2023/03/13 03:08:12;;;;;;;;;0.25;0.25;;;;;11.51;55.14;101261.34;146609;688;45017;-68
2023/03/13 03:11:09;;;;;;;;;1.75;1.75;;;;;11.52;55.48;101262.22;146613;623;45021;-69
2023/03/13 03:14:05;;;;;;;;;2.25;2.25;;;;;11.54;55.01;101276.19;146609;642;45916;-70
2023/03/13 03:17:08;;;;;;;;;2.75;2.00;;;;;11.58;54.82;101280.75;146612;565;45020;-67
2023/03/13 03:20:03;;;;;;;;;4.00;3.00;;;;;11.61;55.57;101282.62;146608;566;45916;-67
2023/03/13 03:23:15;;;;;;;;;4.50;3.50;;;;;11.62;54.43;101332.09;146611;707;45020;-69
2023/03/13 03:26:29;;;;;;;;;3.75;2.25;;;;;11.56;55.10;101291.06;146608;573;45018;-69
2023/03/13 03:29:34;;;;;;;;;2.75;1.25;;;;;11.50;55.38;101284.63;146609;615;45020;-69
2023/03/13 03:32:36;;;;;;;;;3.25;2.50;;;;;11.46;55.57;101295.63;146609;565;45017;-69
2023/03/13 03:35:33;;;;;;;;;3.25;2.75;;;;;11.45;55.72;101288.66;146612;580;45020;-69
2023/03/13 03:38:44;;;;;;;;;4.00;3.50;;;;;11.44;56.06;101305.06;146608;583;45914;-71
2023/03/13 03:41:39;;;;;;;;;1.75;1.75;;;;;11.41;55.90;101298.00;146609;688;45020;-67
2023/03/13 03:44:47;;;;;;;;;4.25;3.00;;;;;11.42;56.06;101304.97;146611;597;45016;-68
2023/03/13 03:48:00;;;;;;;;;5.00;4.00;;;;;11.42;55.78;101315.34;146611;569;45021;-69
2023/03/13 03:51:15;;;;;;;;;4.00;4.00;;;;;9.40;55.37;100958.72;146608;641;45016;-69
2023/03/13 03:54:13;;;;;;;;;5.75;5.50;;;;;11.44;56.12;101318.06;146608;615;46021;-70
2023/03/13 03:57:11;;;;;;;;;2.00;2.00;;;;;11.43;57.04;101324.94;146608;635;45916;-71
2023/03/13 04:00:16;;;;;;;;;3.00;3.00;;;;;11.36;57.58;101317.59;146611;616;45020;-71
2023/03/13 04:03:21;;;;;;;;;3.00;3.00;;;;;9.12;57.06;100946.72;146610;579;45017;-71
2023/03/13 04:06:43;;;;;;;;;;;;;;;;;;;;;
2023/03/13 04:09:46;;;;;;;;;2.00;2.00;;;;;11.24;57.40;101335.06;146610;585;45916;-73
2023/03/13 04:12:59;;;;;;;;;6.00;4.75;;;;;11.25;59.49;101324.78;146612;583;45020;-73
2023/03/13 04:16:00;;;;;;;;;3.00;3.00;;;;;11.21;58.05;101338.37;146608;649;45016;-72
2023/03/13 04:19:12;;;;;;;;;4.00;4.00;;;;;11.20;57.11;101340.88;146612;563;45020;-71
2023/03/13 04:22:11;;;;;;;;;1.75;1.75;;;;;11.22;58.98;101349.66;146610;670;45016;-72
2023/03/13 04:25:15;;;;;;;;;3.00;3.00;;;;;11.20;58.29;101356.47;146614;566;45021;-71
2023/03/13 04:28:19;;;;;;;;;3.00;2.25;;;;;11.17;58.36;101366.66;146609;605;45914;-71
2023/03/13 04:31:18;;;;;;;;;2.00;1.25;;;;;11.19;57.89;101375.44;146612;717;45021;-71
2023/03/13 04:34:17;;;;;;;;;6.75;4.25;;;;;11.24;58.10;101379.19;146608;658;45913;-71
2023/03/13 04:37:44;;;;;;;;;3.25;3.25;;;;;10.23;57.59;101202.84;146614;610;45020;-70
2023/03/13 04:40:42;;;;;;;;;2.25;2.25;;;;;11.20;58.65;101390.22;146610;569;45017;-72
2023/03/13 04:43:37;;;;;;;;;3.50;2.00;;;;;11.15;58.14;101387.31;146614;572;45020;-71
2023/03/13 04:46:34;;;;;;;;;2.25;2.25;;;;;11.16;57.99;101389.13;146607;661;46016;-70
2023/03/13 04:49:56;;;;;;;;;;;;;;;;;;;;;
2023/03/13 04:53:09;;;;;;;;;5.00;5.00;;;;;9.13;58.65;101022.66;146609;679;45912;-69
2023/03/13 04:56:23;;;;;;;;;6.00;4.00;;;;;8.42;57.99;100901.94;146613;587;45020;-69
2023/03/13 04:59:47;;;;;;;;;2.75;2.75;;;;;11.36;57.58;101412.78;146611;608;45016;-69
2023/03/13 05:02:42;;;;;;;;;3.25;3.25;;;;;11.37;57.94;101414.56;146611;566;45021;-68
2023/03/13 05:05:47;;;;;;;;;3.00;2.00;;;;;11.37;57.17;101412.87;146629;629;45914;-72
2023/03/13 05:09:02;;;;;;;;;3.00;3.00;;;;;11.35;56.36;101419.69;146632;614;45010;-70
2023/03/13 05:12:07;;;;;;;;;;;;;;;;;;;;;
2023/03/13 05:15:13;;;;;;;;;1.25;1.25;;;;;11.40;56.56;101431.25;146632;655;44914;-68
2023/03/13 05:18:18;;;;;;;;;0.50;0.50;;;;;11.43;56.28;101438.28;146633;616;44033;-71
2023/03/13 05:21:12;;;;;;;;;1.25;1.25;;;;;11.40;56.32;101441.62;146629;688;45010;-71
2023/03/13 05:24:06;;;;;;;;;0.00;0.00;;;;;11.41;57.42;101456.38;146634;627;44017;-71
2023/03/13 05:27:07;;;;;;;;;4.00;3.00;;;;;11.44;57.05;101445.28;146635;589;44020;-71
2023/03/13 05:30:14;;;;;;;;;4.00;3.75;;;;;11.42;56.74;101449.50;146633;595;44034;-68
2023/03/13 05:33:23;;;;;;;;;5.75;5.75;;;;;9.31;57.19;101084.97;146633;650;44020;-71
2023/03/13 05:36:23;;;;;;;;;6.00;5.50;;;;;11.40;57.28;101464.06;146631;600;44914;-72
2023/03/13 05:39:16;;;;;;;;;7.00;7.00;;;;;11.41;57.15;101458.97;146633;578;44032;-72
2023/03/13 05:42:37;;;;;;;;;7.50;7.00;;;;;11.47;56.87;101463.66;146631;589;45012;-71
2023/03/13 05:45:44;;;;;;;;;7.00;7.00;;;;;11.49;56.68;101470.72;146633;659;44021;-69
2023/03/13 05:48:44;;;;;;;;;8.00;6.25;;;;;11.53;57.61;101471.81;146633;588;44016;-68
2023/03/13 05:51:46;;;;;;;;;15.25;12.00;;;;;11.62;60.33;101472.34;146633;637;44020;-70
2023/03/13 05:55:07;;;;;;;;;5.25;5.25;;;;;11.75;58.21;101466.16;146629;607;45014;-70
2023/03/13 05:58:13;;;;;;;;;5.75;5.00;;;;;11.85;61.56;101471.13;146632;709;44020;-69
2023/03/13 06:01:25;;;;;;;;;7.50;6.00;;;;;12.04;59.83;101474.78;146633;628;44017;-70
2023/03/13 06:04:26;;;;;;;;;5.50;5.00;;;;;12.17;58.11;101479.84;146623;574;45020;-71
2023/03/13 06:07:38;;;;;;;;;4.25;3.75;;;;;10.30;57.92;101131.56;146617;601;45016;-70
2023/03/13 06:10:37;;;;;;;;;9.00;6.25;;;;;12.41;58.68;101478.66;146618;629;45020;-69
2023/03/13 06:14:00;;;;;;;;;;;;;;;;;;;;;
2023/03/13 06:17:24;;;;;;;;;11.00;9.50;;;;;12.71;57.62;101475.97;146617;573;45020;-70
2023/03/13 06:20:30;;;;;;;;;27.75;24.75;;;;;12.87;55.72;101483.78;146611;565;45914;-69
2023/03/13 06:23:31;;;;;;;;;30.50;26.75;;;;;12.97;55.83;101481.66;146617;609;45021;-69
2023/03/13 06:26:24;;;;;;;;;26.50;22.75;;;;;12.99;54.62;101488.75;146612;571;45912;-69
2023/03/13 06:29:27;;;;;;;;;48.50;39.25;;;;;12.97;54.84;101490.38;146617;582;45021;-69
2023/03/13 06:32:33;;;;;;;;;12.50;12.25;;;;;12.91;54.88;101490.03;146613;571;45016;-70
2023/03/13 06:35:48;;;;;;;;;21.25;19.25;;;;;12.74;55.77;101491.75;146620;612;45020;-69
2023/03/13 06:38:50;;;;;;;;;46.00;37.50;;;;;12.68;57.50;101501.81;146614;599;45019;-69
2023/03/13 06:41:45;;;;;;;;;10.00;9.75;;;;;12.72;55.04;101498.56;146616;577;45020;-69
2023/03/13 06:44:53;;;;;;;;;45.50;35.50;;;;;12.78;56.01;101506.69;146615;565;45912;-69
2023/03/13 06:47:45;;;;;;;;;6.25;6.25;;;;;12.89;55.70;101505.56;146618;566;45020;-69
2023/03/13 06:50:55;;;;;;;;;26.75;21.75;;;;;13.05;55.86;101495.97;146613;608;46912;-69
2023/03/13 06:54:04;;;;;;;;;14.75;8.00;;;;;13.15;53.09;101500.88;146616;577;45020;-70
2023/03/13 06:57:16;;;;;;;;;15.25;14.00;;;;;13.26;54.17;101507.56;146613;563;45016;-69
2023/03/13 07:00:10;;;;;;;;;8.25;8.00;;;;;13.48;53.38;101506.09;146617;569;47010;-68
2023/03/13 07:03:19;;;;;;;;;9.25;8.25;;;;;13.67;53.59;101505.31;146614;641;45916;-69
2023/03/13 07:06:21;;;;;;;;;9.50;9.00;;;;;13.85;53.20;101508.84;146620;575;45020;-68
2023/03/13 07:09:35;;;;;;;;;6.75;6.00;;;;;14.02;53.38;101513.22;146614;587;45912;-71
2023/03/13 07:12:33;;;;;;;;;6.25;6.00;;;;;14.20;51.82;101513.22;146617;572;45020;-70
2023/03/13 07:15:32;;;;;;;;;6.00;5.00;;;;;14.37;52.22;101518.37;146614;620;45912;-69
2023/03/13 07:18:32;;;;;;;;;8.50;8.50;;;;;14.52;52.56;101521.75;146617;569;45020;-70
2023/03/13 07:21:36;;;;;;;;;8.25;7.00;;;;;14.73;49.74;101530.59;146614;572;45023;-70
2023/03/13 07:24:39;;;;;;;;;6.25;5.00;;;;;14.87;49.47;101527.75;146616;579;45020;-69
2023/03/13 07:27:40;;;;;;;;;3.00;3.00;;;;;14.98;47.49;101523.91;146615;675;45918;-69
2023/03/13 07:30:54;;;;;;;;;7.00;7.00;;;;;15.06;48.15;101535.59;146619;666;45021;-69
2023/03/13 07:33:55;;;;;;;;;6.75;4.75;;;;;15.24;49.90;101532.94;146616;597;45914;-69
2023/03/13 07:37:00;;;;;;;;;;;;;;;;;;;;;
2023/03/13 07:40:21;;;;;;;;;6.25;5.00;;;;;16.16;47.84;101531.69;146613;616;45916;-70
2023/03/13 07:43:20;;;;;;;;;4.00;4.00;;;;;16.34;46.00;101532.47;146619;610;45020;-69
2023/03/13 07:46:23;;;;;;;;;4.75;4.75;;;;;16.28;45.93;101529.59;146612;573;45913;-70
2023/03/13 07:49:17;;;;;;;;;6.50;5.50;;;;;16.02;45.61;101528.53;146618;633;45020;-70
2023/03/13 07:52:11;;;;;;;;;5.25;5.00;;;;;15.81;46.17;101533.72;146616;623;45017;-69
2023/03/13 07:55:16;;;;;;;;;4.75;4.50;;;;;15.52;46.04;101529.84;146618;683;45020;-71
2023/03/13 07:58:30;;;;;;;;;;;;;;;;;;;;;
2023/03/13 08:01:30;;;;;;;;;5.00;5.00;;;;;15.08;47.32;101546.09;146616;653;46010;-71
2023/03/13 08:04:39;;;;;;;;;;;;;;;;;;;;;
2023/03/13 08:07:49;;;;;;;;;4.75;4.75;;;;;14.13;47.96;101411.12;146607;696;46010;-70
2023/03/13 08:10:54;;;;;;;;;3.75;3.50;;;;;14.78;47.76;101547.38;146610;700;45021;-70
2023/03/13 08:14:03;;;;;;;;;9.75;8.75;;;;;12.68;45.45;101197.38;146612;586;45021;-70
2023/03/13 08:17:13;;;;;;;;;;;;;;;;;;;;;
2023/03/13 08:20:23;;;;;;;;;3.75;3.00;;;;;14.38;49.08;101557.56;146611;687;45912;-69
2023/03/13 08:23:21;;;;;;;;;5.50;5.50;;;;;14.43;48.04;101542.16;146610;606;45016;-69
2023/03/13 08:26:47;;;;;;;;;5.00;5.00;;;;;14.49;48.63;101550.28;146608;704;47020;-69
2023/03/13 08:29:45;;;;;;;;;5.50;4.25;;;;;14.60;48.10;101545.59;146610;597;45019;-70
2023/03/13 08:32:52;;;;;;;;;12.75;10.75;;;;;14.84;44.96;101545.87;146612;584;45020;-71
2023/03/13 08:35:57;;;;;;;;;8.00;7.75;;;;;14.85;43.97;101543.31;146609;649;45916;-70
2023/03/13 08:38:54;;;;;;;;;5.00;5.00;;;;;14.62;42.33;101539.63;146611;603;45020;-71
2023/03/13 08:42:01;;;;;;;;;7.25;5.00;;;;;14.40;43.27;101531.56;146606;617;45916;-71
2023/03/13 08:44:59;;;;;;;;;5.50;5.00;;;;;14.49;44.73;101513.75;146612;597;45021;-72
2023/03/13 08:48:25;;;;;;;;;4.00;4.00;;;;;13.46;41.08;101309.72;146610;569;45016;-74
2023/03/13 08:51:54;;;;;;;;;;;;;;;;;;;;;
2023/03/13 08:55:01;;;;;;;;;5.00;5.00;;;;;15.09;42.24;101543.56;146608;612;45914;-71
2023/03/13 08:58:11;;;;;;;;;4.00;3.00;;;;;15.45;40.22;101531.28;146610;564;45912;-72
2023/03/13 09:01:49;;;;;;;;;4.25;4.25;;;;;13.89;40.47;101231.84;146611;627;45016;-74
2023/03/13 09:04:54;;;;;;;;;14.50;13.25;;;;;15.90;40.25;101517.53;146616;588;45020;-73
2023/03/13 09:07:58;;;;;;;;;4.00;4.00;;;;;15.76;36.43;101521.28;146614;654;45916;-70
2023/03/13 09:11:08;;;;;;;;;4.00;3.75;;;;;15.48;40.46;101534.03;146619;569;45020;-72
2023/03/13 09:14:15;;;;;;;;;;;;;;;;;;;;;
2023/03/13 09:17:21;;;;;;;;;5.50;4.00;;;;;13.95;41.12;101202.56;146618;604;45022;-71
2023/03/13 09:20:28;;;;;;;;;12.50;10.25;;;;;15.89;41.51;101523.62;146614;618;45017;-71
2023/03/13 09:23:43;;;;;;;;;;;;;;;;;;;;;
2023/03/13 09:26:41;;;;;;;;;5.25;4.50;;;;;15.98;39.07;101526.62;146613;565;45018;-71
2023/03/13 09:29:42;;;;;;;;;6.75;5.75;;;;;16.05;40.87;101523.41;146615;590;45021;-71
2023/03/13 09:32:57;;;;;;;;;5.25;4.75;;;;;16.50;40.46;101531.34;146615;569;45916;-71
2023/03/13 09:36:22;;;;;;;;;8.00;6.00;;;;;16.84;34.69;101511.75;146621;593;45021;-72
2023/03/13 09:39:26;;;;;;;;;7.00;4.75;;;;;16.91;40.49;101503.28;146617;647;45016;-71
2023/03/13 09:42:27;;;;;;;;;6.00;6.00;;;;;16.83;40.39;101512.59;146619;564;45021;-69
2023/03/13 09:45:43;;;;;;;;;7.00;6.25;;;;;16.78;39.29;101498.41;146611;576;45914;-69
2023/03/13 09:48:58;;;;;;;;;6.25;5.00;;;;;16.95;39.10;101506.94;146616;653;45021;-71
2023/03/13 09:52:04;;;;;;;;;4.75;4.50;;;;;17.01;38.36;101515.91;146617;693;45017;-69
2023/03/13 09:55:20;;;;;;;;;8.00;6.00;;;;;16.92;38.44;101509.44;146616;691;46010;-69
2023/03/13 09:58:34;;;;;;;;;9.00;8.25;;;;;16.60;34.75;101499.47;146612;618;47912;-70
2023/03/13 10:01:40;;;;;;;;;38.25;32.00;;;;;16.34;36.19;101487.97;146620;575;45020;-70
2023/03/13 10:05:14;;;;;;;;;;;;;;;;;;;;;
2023/03/13 10:08:36;;;;;;;;;2.00;0.00;;;;;16.61;37.33;101490.78;146611;563;45020;-70
2023/03/13 10:11:59;;;;;;;;;15.50;13.75;;;;;16.77;35.62;101502.78;146609;590;45018;-69
2023/03/13 10:15:37;;;;;;;;;5.00;5.00;;;;;15.03;33.78;101188.09;146612;565;45020;-71
2023/03/13 10:18:30;;;;;;;;;7.50;6.00;;;;;16.48;36.29;101511.16;146610;577;45018;-71
2023/03/13 10:21:46;;;;;;;;;8.00;8.00;;;;;16.32;37.30;101507.97;146612;601;45020;-70
2023/03/13 10:25:13;;;;;;;;;22.50;16.50;;;;;14.66;37.06;101186.59;146609;608;45912;-70
2023/03/13 10:28:18;;;;;;;;;6.75;6.00;;;;;16.58;37.76;101505.50;146613;576;45021;-71
2023/03/13 10:31:32;;;;;;;;;7.75;6.00;;;;;16.72;37.79;101496.41;146609;637;45917;-71
2023/03/13 10:34:49;;;;;;;;;5.00;5.00;;;;;16.92;35.47;101494.63;146611;600;45021;-70
2023/03/13 10:38:03;;;;;;;;;4.25;4.25;;;;;17.33;37.53;101496.97;146607;584;46010;-71
2023/03/13 10:41:42;;;;;;;;;;;;;;;;;;;;;
2023/03/13 10:44:50;;;;;;;;;;;;;;;;;;;;;
2023/03/13 10:48:01;;;;;;;;;15.75;12.50;;;;;16.98;37.18;101336.78;146608;616;46021;-71
2023/03/13 10:51:05;;;;;;;;;8.50;8.50;;;;;17.93;34.37;101515.72;146611;580;45016;-70
2023/03/13 10:54:13;;;;;;;;;11.50;11.00;;;;;17.87;36.05;101510.25;146609;580;46010;-70
2023/03/13 10:57:39;;;;;;;;;14.25;12.50;;;;;17.99;38.01;101503.69;146608;628;45914;-71
2023/03/13 11:01:15;;;;;;;;;12.50;10.75;;;;;18.48;37.86;101507.03;146612;618;45020;-70
2023/03/13 11:04:52;;;;;;;;;6.50;5.75;;;;;19.02;35.93;101501.69;146610;638;45914;-70
2023/03/13 11:07:53;;;;;;;;;6.25;6.00;;;;;19.05;31.04;101493.88;146611;569;45020;-72
2023/03/13 11:11:22;;;;;;;;;7.33;7.33;;;;;17.07;35.82;101203.44;146610;677;45914;-70
2023/03/13 11:14:30;;;;;;;;;4.25;4.25;;;;;18.32;35.17;101492.53;146611;590;45022;-72
2023/03/13 11:17:45;;;;;;;;;7.00;7.00;;;;;18.28;34.85;101490.63;146610;691;45021;-71
2023/03/13 11:20:52;;;;;;;;;5.00;5.00;;;;;18.50;35.73;101476.44;146614;574;45031;-70
2023/03/13 11:24:12;;;;;;;;;8.00;7.00;;;;;17.02;32.04;101157.88;146608;592;46016;-74
2023/03/13 11:27:49;;;;;;;;;5.00;5.00;;;;;18.62;36.42;101479.44;146614;621;45021;-70
2023/03/13 11:31:37;;;;;;;;;4.00;4.00;;;;;18.36;36.95;101480.38;146612;555;45016;-72
2023/03/13 11:35:04;;;;;;;;;6.33;5.00;;;;;17.07;38.46;101317.00;146612;606;46010;-71
2023/03/13 11:38:23;;;;;;;;;;;;;;;;;;;;;
2023/03/13 11:41:56;;;;;;;;;5.00;4.00;;;;;17.30;40.43;101471.53;146708;554;45014;-70
2023/03/13 11:45:34;;;;;;;;;5.00;5.00;;;;;17.55;39.13;101453.19;146626;645;45016;-71
2023/03/13 11:49:11;;;;;;;;;5.33;3.33;;;;;17.99;38.60;101464.31;146623;565;46010;-71
2023/03/13 11:52:47;;;;;;;;;7.50;6.25;;;;;18.05;37.12;101462.75;146615;599;46012;-70
2023/03/13 11:56:10;;;;;;;;;5.50;4.50;;;;;17.81;38.71;101447.09;146621;570;45020;-72
2023/03/13 11:59:40;;;;;;;;;4.25;3.25;;;;;17.80;38.95;101464.56;146615;620;45913;-69
2023/03/13 12:03:04;;;;;;;;;8.25;6.50;;;;;17.87;39.84;101458.66;146622;565;46010;-70
2023/03/13 12:06:28;;;;;;;;;5.75;4.50;;;;;18.08;39.87;101470.72;146618;639;46917;-70
2023/03/13 12:10:11;;;;;;;;;5.50;4.75;;;;;18.21;39.69;101450.16;146621;646;46010;-70
2023/03/13 12:13:25;;;;;;;;;6.00;6.00;;;;;18.24;39.17;101438.88;146614;587;46014;-70
2023/03/13 12:16:45;;;;;;;;;6.50;6.00;;;;;17.16;37.10;101265.72;146621;571;45023;-71
2023/03/13 12:20:25;;;;;;;;;4.75;4.75;;;;;17.85;38.83;101428.88;146616;707;45913;-69
2023/03/13 12:23:48;;;;;;;;;7.00;5.50;;;;;17.66;37.97;101431.69;146622;564;45021;-70
2023/03/13 12:27:19;;;;;;;;;8.50;4.00;;;;;17.44;39.06;101425.72;146616;612;45913;-70
2023/03/13 12:31:11;;;;;;;;;4.75;4.50;;;;;17.43;40.79;101418.69;146621;581;45023;-71
2023/03/13 12:34:38;;;;;;;;;5.75;4.25;;;;;17.67;37.93;101421.25;146707;569;45018;-71
2023/03/13 12:38:18;;;;;;;;;5.75;5.75;;;;;17.51;39.29;101356.94;146625;586;45016;-70
2023/03/13 12:42:06;;;;;;;;;6.75;4.75;;;;;18.18;40.44;101422.94;146627;586;45021;-70
2023/03/13 12:45:13;;;;;;;;;6.50;5.50;;;;;18.30;38.21;101423.31;146622;573;45016;-70
2023/03/13 12:49:28;;;;;;;;;5.00;5.00;;;;;17.87;38.48;101410.56;146627;574;46012;-72
2023/03/13 12:53:04;;;;;;;;;8.25;5.75;;;;;17.20;39.31;101341.03;146623;596;45030;-71
2023/03/13 12:56:47;;;;;;;;;6.75;5.75;;;;;17.37;40.31;101391.38;146628;567;45021;-70
2023/03/13 13:00:06;;;;;;;;;6.75;5.50;;;;;16.52;39.12;101264.41;146622;610;45016;-72
2023/03/13 13:04:06;;;;;;;;;4.75;4.75;;;;;15.40;39.54;101079.81;146629;587;45021;-70
2023/03/13 13:07:20;;;;;;;;;6.00;6.00;;;;;17.28;38.73;101419.03;146623;593;45016;-69
2023/03/13 13:10:33;;;;;;;;;9.25;7.50;;;;;17.20;39.61;101414.41;146627;650;46012;-71
2023/03/13 13:14:05;;;;;;;;;4.00;4.00;;;;;17.22;38.98;101413.59;146623;670;45021;-71
2023/03/13 13:17:36;;;;;;;;;5.25;5.25;;;;;17.20;40.24;101401.28;146627;639;45020;-70
2023/03/13 13:20:52;;;;;;;;;5.75;5.75;;;;;17.13;39.54;101396.66;146623;579;45018;-72
2023/03/13 13:23:58;;;;;;;;;8.25;5.75;;;;;17.11;38.66;101396.63;146626;673;45021;-72
2023/03/13 13:27:03;;;;;;;;;6.00;5.50;;;;;17.08;38.05;101404.38;146621;610;45039;-71
2023/03/13 13:30:40;;;;;;;;;6.00;6.00;;;;;17.07;39.25;101398.25;146624;671;45020;-70
2023/03/13 13:33:46;;;;;;;;;7.50;7.50;;;;;17.04;37.91;101400.75;146622;569;45019;-71
2023/03/13 13:37:07;;;;;;;;;7.00;5.50;;;;;17.01;39.39;101397.13;146622;604;46010;-71
2023/03/13 13:40:46;;;;;;;;;4.75;4.75;;;;;16.89;38.42;101401.94;146621;573;45912;-72
2023/03/13 13:43:48;;;;;;;;;7.00;7.00;;;;;16.73;37.86;101390.84;146714;569;45014;-69
2023/03/13 13:47:03;;;;;;;;;12.50;9.50;;;;;16.68;38.27;101391.53;146627;565;45017;-70
2023/03/13 13:50:16;;;;;;;;;;;;;;;;;;;;;
2023/03/13 13:54:11;;;;;;;;;;;;;;;;;;;;;
2023/03/13 13:57:17;;;;;;;;;5.25;4.25;;;;;16.40;39.21;101398.31;146634;678;45012;-70
2023/03/13 14:00:59;;;;;;;;;7.75;6.75;;;;;16.42;38.59;101390.53;146629;585;46015;-69
2023/03/13 14:04:33;;;;;;;;;6.00;6.00;;;;;16.38;39.61;101392.13;146631;643;45020;-69
2023/03/13 14:08:09;;;;;;;;;5.00;5.00;;;;;16.45;39.43;101406.34;146632;634;45015;-69
2023/03/13 14:11:42;;;;;;;;;7.50;6.00;;;;;16.26;38.80;101382.09;146635;645;45012;-71
2023/03/13 14:14:56;;;;;;;;;7.75;5.50;;;;;16.36;38.02;101399.94;146628;573;46012;-70
2023/03/13 14:18:26;;;;;;;;;7.00;5.00;;;;;16.31;38.81;101401.47;146633;631;45021;-70
2023/03/13 14:21:31;;;;;;;;;7.00;6.00;;;;;16.21;39.94;101390.59;146630;595;45915;-70
2023/03/13 14:24:37;;;;;;;;;5.75;5.75;;;;;16.19;38.91;101397.50;146632;580;46010;-70
2023/03/13 14:27:48;;;;;;;;;5.00;5.00;;;;;16.09;39.51;101383.16;146628;632;45016;-69
2023/03/13 14:30:55;;;;;;;;;5.00;4.50;;;;;16.07;39.99;101390.06;146628;655;46010;-70
2023/03/13 14:34:09;;;;;;;;;5.50;5.50;;;;;16.08;40.15;101397.97;146625;655;47016;-69
2023/03/13 14:37:46;;;;;;;;;5.00;5.00;;;;;15.92;40.72;101370.31;146638;667;45020;-70
2023/03/13 14:40:46;;;;;;;;;7.00;6.25;;;;;16.10;40.22;101401.53;146627;631;45917;-70
2023/03/13 14:43:52;;;;;;;;;4.00;4.00;;;;;16.17;40.50;101403.56;146630;680;46010;-70
2023/03/13 14:47:02;;;;;;;;;8.00;6.75;;;;;16.16;39.17;101407.00;146630;576;45873;-71
2023/03/13 14:50:16;;;;;;;;;7.25;5.75;;;;;16.06;40.05;101410.09;146632;686;45020;-71
2023/03/13 14:53:25;;;;;;;;;5.75;5.00;;;;;15.91;40.54;101420.81;146630;566;45014;-70
2023/03/13 14:56:22;;;;;;;;;7.75;6.00;;;;;15.88;40.25;101417.19;146636;679;45012;-69
2023/03/13 14:59:26;;;;;;;;;9.00;8.75;;;;;15.90;39.47;101420.78;146626;700;45917;-69
2023/03/13 15:02:26;;;;;;;;;5.00;4.25;;;;;15.73;39.63;101414.84;146635;671;45012;-69
2023/03/13 15:05:49;;;;;;;;;7.75;6.00;;;;;15.39;40.88;101386.37;146628;659;45016;-70
2023/03/13 15:09:18;;;;;;;;;8.00;7.00;;;;;15.34;41.23;101400.97;146633;648;45021;-70
2023/03/13 15:12:52;;;;;;;;;6.50;6.50;;;;;15.31;41.54;101419.13;146627;645;45016;-69
2023/03/13 15:15:59;;;;;;;;;6.25;5.00;;;;;15.31;40.88;101422.63;146626;613;45021;-70
2023/03/13 15:19:14;;;;;;;;;;;;;;;;;;;;;
2023/03/13 15:22:34;;;;;;;;;5.50;5.50;;;;;15.42;41.19;101412.63;146635;659;45012;-69